Home   Weather   USA   Duluth   Past weeks
Flag for USA

Past Weather in Duluth, Minnesota, USA — Yesterday and Last 2 Weeks

Currently: 69 °F. Sunny. (Weather station: Duluth International Airport, USA). See more current weather

Past Weather in Duluth — Graph

°F

Duluth Temperature Yesterday

Maximum temperature yesterday: 64 °F (at 3:55 pm)
Minimum temperature yesterday: 48 °F (at 6:55 am)
Average temperature yesterday: 55 °F

High & Low Weather Summary for the Past Weeks

 TemperatureHumidityPressure
High84 °F (Sep 19, 1:55 pm)100% (Sep 27, 10:13 pm)30.34 "Hg (Sep 27, 10:13 pm)
Low39 °F (Sep 22, 6:55 am)35% (Sep 23, 3:55 pm)29.54 "Hg (Sep 20, 4:55 pm)
Average59 °F72%29.91 "Hg
* Reported Sep 13 4:55 pm — Sep 28 4:55 pm, Duluth. Weather by CustomWeather, © 2021

Note: Actual official high and low records may vary slightly from our data, if they occured in-between our weather recording intervals... More about our weather records

Duluth Weather History for the Previous 24 Hours

Scroll right to see more
 ConditionsComfort  
Time TempWeatherWind HumidityBarometerVisibility
4:55 pm
Tue, Sep 28
74 °FSunny.7 mph56%29.90 "Hg10 mi
3:55 pm75 °FSunny.9 mph54%29.90 "Hg10 mi
2:55 pm74 °FSunny.12 mph56%29.90 "Hg10 mi
1:55 pm73 °FSunny.13 mph57%29.92 "Hg10 mi
12:55 pm71 °FSunny.14 mph61%29.94 "Hg10 mi
11:55 am67 °FSunny.12 mph66%29.96 "Hg10 mi
10:55 am63 °FSunny.16 mph70%29.97 "Hg10 mi
9:55 am58 °FPassing clouds.9 mph84%29.98 "Hg10 mi
9:24 am54 °FPassing clouds.8 mph97%29.96 "Hg10 mi
8:55 am53 °FScattered clouds.8 mph96%29.98 "Hg6 mi
8:35 am52 °FFog.6 mph100%29.96 "Hg1 mi
7:55 am51 °FFog.8 mph96%29.99 "Hg0 mi
6:55 am50 °FFog.7 mph96%29.98 "Hg0 mi
5:55 am50 °FFog.7 mph100%29.98 "Hg1 mi
4:55 am51 °FFog.5 mph96%29.98 "Hg1 mi
3:55 am51 °FFog.8 mph100%29.96 "Hg1 mi
3:21 am51 °FFog.8 mph96%29.95 "Hg1 mi
2:55 am51 °FFog.10 mph96%29.96 "Hg1 mi
2:35 am51 °FFog.10 mph96%29.95 "Hg1 mi
1:55 am50 °FFog.9 mph96%29.96 "Hg1 mi
1:34 am50 °FFog.8 mph96%29.95 "Hg1 mi
1:16 am50 °FFog.5 mph100%29.96 "Hg0 mi
12:55 am51 °FFog.3 mph96%29.97 "Hg1 mi
12:40 am51 °FFog.6 mph100%29.96 "Hg1 mi
12:08 am51 °FFog.8 mph100%29.96 "Hg3 mi
11:55 pm
Mon, Sep 27
51 °FFog.8 mph100%29.97 "Hg2 mi
10:55 pm51 °FFog.8 mph100%29.98 "Hg1 mi
10:13 pm51 °FFog.8 mph100%29.96 "Hg1 mi
10:02 pm51 °FFog.8 mph96%29.96 "Hg1 mi
9:27 pm51 °FPassing clouds.7 mph92%29.96 "Hg8 mi
8:55 pm50 °FPassing clouds.6 mph86%29.98 "Hg10 mi
7:55 pm53 °FClear.5 mph77%29.97 "Hg10 mi
6:55 pm54 °FSunny.6 mph80%29.97 "Hg10 mi
Weather by CustomWeather, © 2021

See weather overview